<?xml version='1.0' encoding='UTF-8'?>
<gpx version="1.1" creator="https://www.komoot.de" xmlns="http://www.topografix.com/GPX/1/1" xmlns:xsi="http://www.w3.org/2001/XMLSchema-instance" xsi:schemaLocation="http://www.topografix.com/GPX/1/1 http://www.topografix.com/GPX/1/1/gpx.xsd">
  <metadata>
    <name>Antoniosweg 7,68</name>
    <author>
      <link href="https://www.komoot.de">
        <text>komoot</text>
        <type>text/html</type>
      </link>
    </author>
  </metadata>
  <trk>
    <name>Antoniosweg 7,68</name>
    <trkseg>
      <trkpt lat="49.701595" lon="10.804986">
        <ele>317.257917</ele>
        <time>2022-06-02T09:35:51.015Z</time>
      </trkpt>
      <trkpt lat="49.701513" lon="10.805045">
        <ele>317.257917</ele>
        <time>2022-06-02T09:35:55.681Z</time>
      </trkpt>
      <trkpt lat="49.701366" lon="10.805011">
        <ele>317.257917</ele>
        <time>2022-06-02T09:35:57.684Z</time>
      </trkpt>
      <trkpt lat="49.701182" lon="10.804954">
        <ele>317.257917</ele>
        <time>2022-06-02T09:35:59.677Z</time>
      </trkpt>
      <trkpt lat="49.701069" lon="10.804903">
        <ele>317.257917</ele>
        <time>2022-06-02T09:36:00.683Z</time>
      </trkpt>
      <trkpt lat="49.700945" lon="10.804835">
        <ele>317.257917</ele>
        <time>2022-06-02T09:36:01.677Z</time>
      </trkpt>
      <trkpt lat="49.700825" lon="10.804756">
        <ele>317.257917</ele>
        <time>2022-06-02T09:36:02.678Z</time>
      </trkpt>
      <trkpt lat="49.700708" lon="10.804664">
        <ele>317.217427</ele>
        <time>2022-06-02T09:36:03.683Z</time>
      </trkpt>
      <trkpt lat="49.700591" lon="10.804551">
        <ele>317.071921</ele>
        <time>2022-06-02T09:36:04.670Z</time>
      </trkpt>
      <trkpt lat="49.700482" lon="10.804435">
        <ele>316.932348</ele>
        <time>2022-06-02T09:36:05.684Z</time>
      </trkpt>
      <trkpt lat="49.700376" lon="10.804314">
        <ele>316.793372</ele>
        <time>2022-06-02T09:36:06.677Z</time>
      </trkpt>
      <trkpt lat="49.700267" lon="10.804195">
        <ele>316.652629</ele>
        <time>2022-06-02T09:36:07.680Z</time>
      </trkpt>
      <trkpt lat="49.700154" lon="10.804085">
        <ele>316.511784</ele>
        <time>2022-06-02T09:36:08.683Z</time>
      </trkpt>
      <trkpt lat="49.700040" lon="10.803985">
        <ele>316.373536</ele>
        <time>2022-06-02T09:36:09.691Z</time>
      </trkpt>
      <trkpt lat="49.699926" lon="10.803897">
        <ele>316.239138</ele>
        <time>2022-06-02T09:36:10.676Z</time>
      </trkpt>
      <trkpt lat="49.699815" lon="10.803820">
        <ele>316.110815</ele>
        <time>2022-06-02T09:36:11.684Z</time>
      </trkpt>
      <trkpt lat="49.699710" lon="10.803759">
        <ele>315.992504</ele>
        <time>2022-06-02T09:36:12.668Z</time>
      </trkpt>
      <trkpt lat="49.699615" lon="10.803713">
        <ele>315.887502</ele>
        <time>2022-06-02T09:36:13.693Z</time>
      </trkpt>
      <trkpt lat="49.699453" lon="10.803657">
        <ele>315.712411</ele>
        <time>2022-06-02T09:36:15.674Z</time>
      </trkpt>
      <trkpt lat="49.699326" lon="10.803633">
        <ele>315.577458</ele>
        <time>2022-06-02T09:36:17.679Z</time>
      </trkpt>
      <trkpt lat="49.699231" lon="10.803624">
        <ele>315.477067</ele>
        <time>2022-06-02T09:36:20.696Z</time>
      </trkpt>
      <trkpt lat="49.699132" lon="10.803626">
        <ele>315.372637</ele>
        <time>2022-06-02T09:36:26.672Z</time>
      </trkpt>
      <trkpt lat="49.698994" lon="10.803647">
        <ele>315.241362</ele>
        <time>2022-06-02T09:36:29.689Z</time>
      </trkpt>
      <trkpt lat="49.698892" lon="10.803666">
        <ele>315.145081</ele>
        <time>2022-06-02T09:36:31.697Z</time>
      </trkpt>
      <trkpt lat="49.698792" lon="10.803680">
        <ele>315.050983</ele>
        <time>2022-06-02T09:36:33.671Z</time>
      </trkpt>
      <trkpt lat="49.698687" lon="10.803664">
        <ele>314.952106</ele>
        <time>2022-06-02T09:36:36.693Z</time>
      </trkpt>
      <trkpt lat="49.698580" lon="10.803553">
        <ele>314.831350</ele>
        <time>2022-06-02T09:36:41.699Z</time>
      </trkpt>
      <trkpt lat="49.698517" lon="10.803398">
        <ele>314.720385</ele>
        <time>2022-06-02T09:36:43.689Z</time>
      </trkpt>
      <trkpt lat="49.698506" lon="10.803137">
        <ele>314.561843</ele>
        <time>2022-06-02T09:36:45.693Z</time>
      </trkpt>
      <trkpt lat="49.698501" lon="10.802971">
        <ele>314.461112</ele>
        <time>2022-06-02T09:36:46.691Z</time>
      </trkpt>
      <trkpt lat="49.698487" lon="10.802792">
        <ele>314.351819</ele>
        <time>2022-06-02T09:36:47.681Z</time>
      </trkpt>
      <trkpt lat="49.698467" lon="10.802615">
        <ele>314.242905</ele>
        <time>2022-06-02T09:36:48.704Z</time>
      </trkpt>
      <trkpt lat="49.698444" lon="10.802431">
        <ele>314.129308</ele>
        <time>2022-06-02T09:36:49.686Z</time>
      </trkpt>
      <trkpt lat="49.698408" lon="10.802246">
        <ele>314.012204</ele>
        <time>2022-06-02T09:36:50.689Z</time>
      </trkpt>
      <trkpt lat="49.698362" lon="10.802052">
        <ele>313.886957</ele>
        <time>2022-06-02T09:36:51.686Z</time>
      </trkpt>
      <trkpt lat="49.698315" lon="10.801863">
        <ele>313.764217</ele>
        <time>2022-06-02T09:36:52.675Z</time>
      </trkpt>
      <trkpt lat="49.698268" lon="10.801675">
        <ele>313.686504</ele>
        <time>2022-06-02T09:36:53.675Z</time>
      </trkpt>
      <trkpt lat="49.698226" lon="10.801489">
        <ele>313.727349</ele>
        <time>2022-06-02T09:36:54.679Z</time>
      </trkpt>
      <trkpt lat="49.698187" lon="10.801308">
        <ele>313.766902</ele>
        <time>2022-06-02T09:36:55.697Z</time>
      </trkpt>
      <trkpt lat="49.698153" lon="10.801131">
        <ele>313.805183</ele>
        <time>2022-06-02T09:36:56.700Z</time>
      </trkpt>
      <trkpt lat="49.698127" lon="10.800955">
        <ele>313.842611</ele>
        <time>2022-06-02T09:36:57.675Z</time>
      </trkpt>
      <trkpt lat="49.698111" lon="10.800778">
        <ele>313.879665</ele>
        <time>2022-06-02T09:36:58.681Z</time>
      </trkpt>
      <trkpt lat="49.698105" lon="10.800598">
        <ele>313.917033</ele>
        <time>2022-06-02T09:36:59.671Z</time>
      </trkpt>
      <trkpt lat="49.698109" lon="10.800413">
        <ele>313.955409</ele>
        <time>2022-06-02T09:37:00.704Z</time>
      </trkpt>
      <trkpt lat="49.698119" lon="10.800226">
        <ele>313.994311</ele>
        <time>2022-06-02T09:37:01.692Z</time>
      </trkpt>
      <trkpt lat="49.698134" lon="10.800038">
        <ele>314.033584</ele>
        <time>2022-06-02T09:37:02.673Z</time>
      </trkpt>
      <trkpt lat="49.698148" lon="10.799846">
        <ele>314.073642</ele>
        <time>2022-06-02T09:37:03.698Z</time>
      </trkpt>
      <trkpt lat="49.698163" lon="10.799651">
        <ele>314.114356</ele>
        <time>2022-06-02T09:37:04.697Z</time>
      </trkpt>
      <trkpt lat="49.698178" lon="10.799455">
        <ele>314.155275</ele>
        <time>2022-06-02T09:37:05.681Z</time>
      </trkpt>
      <trkpt lat="49.698195" lon="10.799260">
        <ele>314.196069</ele>
        <time>2022-06-02T09:37:06.693Z</time>
      </trkpt>
      <trkpt lat="49.698210" lon="10.799067">
        <ele>314.236370</ele>
        <time>2022-06-02T09:37:07.680Z</time>
      </trkpt>
      <trkpt lat="49.698224" lon="10.798876">
        <ele>314.281229</ele>
        <time>2022-06-02T09:37:08.683Z</time>
      </trkpt>
      <trkpt lat="49.698236" lon="10.798684">
        <ele>314.329384</ele>
        <time>2022-06-02T09:37:09.702Z</time>
      </trkpt>
      <trkpt lat="49.698248" lon="10.798492">
        <ele>314.377538</ele>
        <time>2022-06-02T09:37:10.679Z</time>
      </trkpt>
      <trkpt lat="49.698257" lon="10.798296">
        <ele>314.426592</ele>
        <time>2022-06-02T09:37:11.675Z</time>
      </trkpt>
      <trkpt lat="49.698264" lon="10.798103">
        <ele>314.474848</ele>
        <time>2022-06-02T09:37:12.680Z</time>
      </trkpt>
      <trkpt lat="49.698270" lon="10.797911">
        <ele>314.522836</ele>
        <time>2022-06-02T09:37:13.689Z</time>
      </trkpt>
      <trkpt lat="49.698274" lon="10.797717">
        <ele>314.571291</ele>
        <time>2022-06-02T09:37:14.683Z</time>
      </trkpt>
      <trkpt lat="49.698276" lon="10.797522">
        <ele>314.619978</ele>
        <time>2022-06-02T09:37:15.681Z</time>
      </trkpt>
      <trkpt lat="49.698278" lon="10.797327">
        <ele>314.668664</ele>
        <time>2022-06-02T09:37:16.686Z</time>
      </trkpt>
      <trkpt lat="49.698281" lon="10.797130">
        <ele>314.717857</ele>
        <time>2022-06-02T09:37:17.696Z</time>
      </trkpt>
      <trkpt lat="49.698285" lon="10.796933">
        <ele>314.767061</ele>
        <time>2022-06-02T09:37:18.680Z</time>
      </trkpt>
      <trkpt lat="49.698288" lon="10.796735">
        <ele>314.816504</ele>
        <time>2022-06-02T09:37:19.699Z</time>
      </trkpt>
      <trkpt lat="49.698291" lon="10.796535">
        <ele>314.866446</ele>
        <time>2022-06-02T09:37:20.678Z</time>
      </trkpt>
      <trkpt lat="49.698296" lon="10.796331">
        <ele>314.917410</ele>
        <time>2022-06-02T09:37:21.693Z</time>
      </trkpt>
      <trkpt lat="49.698302" lon="10.796126">
        <ele>314.958664</ele>
        <time>2022-06-02T09:37:22.674Z</time>
      </trkpt>
      <trkpt lat="49.698308" lon="10.795923">
        <ele>314.987143</ele>
        <time>2022-06-02T09:37:23.675Z</time>
      </trkpt>
      <trkpt lat="49.698314" lon="10.795720">
        <ele>315.015622</ele>
        <time>2022-06-02T09:37:24.682Z</time>
      </trkpt>
      <trkpt lat="49.698322" lon="10.795515">
        <ele>315.044404</ele>
        <time>2022-06-02T09:37:25.695Z</time>
      </trkpt>
      <trkpt lat="49.698331" lon="10.795307">
        <ele>315.073619</ele>
        <time>2022-06-02T09:37:26.693Z</time>
      </trkpt>
      <trkpt lat="49.698341" lon="10.795100">
        <ele>315.102709</ele>
        <time>2022-06-02T09:37:27.682Z</time>
      </trkpt>
      <trkpt lat="49.698353" lon="10.794893">
        <ele>315.131835</ele>
        <time>2022-06-02T09:37:28.682Z</time>
      </trkpt>
      <trkpt lat="49.698366" lon="10.794684">
        <ele>315.161260</ele>
        <time>2022-06-02T09:37:29.690Z</time>
      </trkpt>
      <trkpt lat="49.698382" lon="10.794474">
        <ele>315.190894</ele>
        <time>2022-06-02T09:37:30.683Z</time>
      </trkpt>
      <trkpt lat="49.698398" lon="10.794264">
        <ele>315.220528</ele>
        <time>2022-06-02T09:37:31.697Z</time>
      </trkpt>
      <trkpt lat="49.698420" lon="10.794055">
        <ele>315.250203</ele>
        <time>2022-06-02T09:37:32.674Z</time>
      </trkpt>
      <trkpt lat="49.698442" lon="10.793846">
        <ele>315.279878</ele>
        <time>2022-06-02T09:37:33.689Z</time>
      </trkpt>
      <trkpt lat="49.698464" lon="10.793645">
        <ele>315.308447</ele>
        <time>2022-06-02T09:37:34.686Z</time>
      </trkpt>
      <trkpt lat="49.698485" lon="10.793448">
        <ele>315.337576</ele>
        <time>2022-06-02T09:37:35.683Z</time>
      </trkpt>
      <trkpt lat="49.698509" lon="10.793261">
        <ele>315.401658</ele>
        <time>2022-06-02T09:37:36.693Z</time>
      </trkpt>
      <trkpt lat="49.698535" lon="10.793089">
        <ele>315.461031</ele>
        <time>2022-06-02T09:37:37.695Z</time>
      </trkpt>
      <trkpt lat="49.698562" lon="10.792935">
        <ele>315.514663</ele>
        <time>2022-06-02T09:37:38.703Z</time>
      </trkpt>
      <trkpt lat="49.698588" lon="10.792797">
        <ele>315.562977</ele>
        <time>2022-06-02T09:37:39.696Z</time>
      </trkpt>
      <trkpt lat="49.698626" lon="10.792604">
        <ele>315.630789</ele>
        <time>2022-06-02T09:37:41.684Z</time>
      </trkpt>
      <trkpt lat="49.698632" lon="10.792444">
        <ele>315.684660</ele>
        <time>2022-06-02T09:37:49.687Z</time>
      </trkpt>
      <trkpt lat="49.698558" lon="10.792312">
        <ele>315.743375</ele>
        <time>2022-06-02T09:37:51.693Z</time>
      </trkpt>
      <trkpt lat="49.698407" lon="10.792226">
        <ele>315.827001</ele>
        <time>2022-06-02T09:37:53.688Z</time>
      </trkpt>
      <trkpt lat="49.698308" lon="10.792179">
        <ele>315.880820</ele>
        <time>2022-06-02T09:37:54.683Z</time>
      </trkpt>
      <trkpt lat="49.698197" lon="10.792120">
        <ele>315.941818</ele>
        <time>2022-06-02T09:37:55.692Z</time>
      </trkpt>
      <trkpt lat="49.698089" lon="10.792040">
        <ele>316.004052</ele>
        <time>2022-06-02T09:37:56.678Z</time>
      </trkpt>
      <trkpt lat="49.697981" lon="10.791931">
        <ele>316.071078</ele>
        <time>2022-06-02T09:37:57.691Z</time>
      </trkpt>
      <trkpt lat="49.697874" lon="10.791797">
        <ele>316.142637</ele>
        <time>2022-06-02T09:37:58.687Z</time>
      </trkpt>
      <trkpt lat="49.697766" lon="10.791658">
        <ele>316.215664</ele>
        <time>2022-06-02T09:37:59.694Z</time>
      </trkpt>
      <trkpt lat="49.697675" lon="10.791466">
        <ele>316.373892</ele>
        <time>2022-06-02T09:38:00.683Z</time>
      </trkpt>
      <trkpt lat="49.697593" lon="10.791249">
        <ele>316.718954</ele>
        <time>2022-06-02T09:38:01.683Z</time>
      </trkpt>
      <trkpt lat="49.697525" lon="10.791009">
        <ele>317.078705</ele>
        <time>2022-06-02T09:38:02.681Z</time>
      </trkpt>
      <trkpt lat="49.697456" lon="10.790761">
        <ele>317.449377</ele>
        <time>2022-06-02T09:38:03.688Z</time>
      </trkpt>
      <trkpt lat="49.697417" lon="10.790479">
        <ele>317.845319</ele>
        <time>2022-06-02T09:38:04.680Z</time>
      </trkpt>
      <trkpt lat="49.697383" lon="10.790182">
        <ele>318.259442</ele>
        <time>2022-06-02T09:38:05.702Z</time>
      </trkpt>
      <trkpt lat="49.697353" lon="10.789881">
        <ele>318.677598</ele>
        <time>2022-06-02T09:38:06.696Z</time>
      </trkpt>
      <trkpt lat="49.697324" lon="10.789585">
        <ele>319.088648</ele>
        <time>2022-06-02T09:38:07.697Z</time>
      </trkpt>
      <trkpt lat="49.697295" lon="10.789290">
        <ele>319.498339</ele>
        <time>2022-06-02T09:38:08.682Z</time>
      </trkpt>
      <trkpt lat="49.697267" lon="10.788997">
        <ele>319.905001</ele>
        <time>2022-06-02T09:38:09.684Z</time>
      </trkpt>
      <trkpt lat="49.697239" lon="10.788707">
        <ele>320.278333</ele>
        <time>2022-06-02T09:38:10.697Z</time>
      </trkpt>
      <trkpt lat="49.697211" lon="10.788417">
        <ele>320.627209</ele>
        <time>2022-06-02T09:38:11.689Z</time>
      </trkpt>
      <trkpt lat="49.697182" lon="10.788128">
        <ele>320.975186</ele>
        <time>2022-06-02T09:38:12.678Z</time>
      </trkpt>
      <trkpt lat="49.697154" lon="10.787841">
        <ele>321.320533</ele>
        <time>2022-06-02T09:38:13.680Z</time>
      </trkpt>
      <trkpt lat="49.697125" lon="10.787554">
        <ele>321.666159</ele>
        <time>2022-06-02T09:38:14.694Z</time>
      </trkpt>
      <trkpt lat="49.697096" lon="10.787269">
        <ele>322.009434</ele>
        <time>2022-06-02T09:38:15.676Z</time>
      </trkpt>
      <trkpt lat="49.697068" lon="10.786986">
        <ele>322.350075</ele>
        <time>2022-06-02T09:38:16.693Z</time>
      </trkpt>
      <trkpt lat="49.697039" lon="10.786703">
        <ele>322.691000</ele>
        <time>2022-06-02T09:38:17.684Z</time>
      </trkpt>
      <trkpt lat="49.697011" lon="10.786422">
        <ele>323.029290</ele>
        <time>2022-06-02T09:38:18.685Z</time>
      </trkpt>
      <trkpt lat="49.696984" lon="10.786141">
        <ele>323.367305</ele>
        <time>2022-06-02T09:38:19.701Z</time>
      </trkpt>
      <trkpt lat="49.696957" lon="10.785862">
        <ele>323.619507</ele>
        <time>2022-06-02T09:38:20.679Z</time>
      </trkpt>
      <trkpt lat="49.696930" lon="10.785582">
        <ele>323.864491</ele>
        <time>2022-06-02T09:38:21.693Z</time>
      </trkpt>
      <trkpt lat="49.696902" lon="10.785304">
        <ele>324.107966</ele>
        <time>2022-06-02T09:38:22.693Z</time>
      </trkpt>
      <trkpt lat="49.696874" lon="10.785027">
        <ele>324.350586</ele>
        <time>2022-06-02T09:38:23.700Z</time>
      </trkpt>
      <trkpt lat="49.696846" lon="10.784751">
        <ele>324.592351</ele>
        <time>2022-06-02T09:38:24.680Z</time>
      </trkpt>
      <trkpt lat="49.696819" lon="10.784477">
        <ele>324.832202</ele>
        <time>2022-06-02T09:38:25.695Z</time>
      </trkpt>
      <trkpt lat="49.696790" lon="10.784204">
        <ele>325.071616</ele>
        <time>2022-06-02T09:38:26.697Z</time>
      </trkpt>
      <trkpt lat="49.696758" lon="10.783932">
        <ele>325.310862</ele>
        <time>2022-06-02T09:38:27.680Z</time>
      </trkpt>
      <trkpt lat="49.696722" lon="10.783662">
        <ele>325.549428</ele>
        <time>2022-06-02T09:38:28.692Z</time>
      </trkpt>
      <trkpt lat="49.696678" lon="10.783397">
        <ele>325.786189</ele>
        <time>2022-06-02T09:38:29.692Z</time>
      </trkpt>
      <trkpt lat="49.696626" lon="10.783138">
        <ele>325.609264</ele>
        <time>2022-06-02T09:38:30.685Z</time>
      </trkpt>
      <trkpt lat="49.696565" lon="10.782887">
        <ele>325.402374</ele>
        <time>2022-06-02T09:38:31.689Z</time>
      </trkpt>
      <trkpt lat="49.696495" lon="10.782644">
        <ele>325.197123</ele>
        <time>2022-06-02T09:38:32.681Z</time>
      </trkpt>
      <trkpt lat="49.696417" lon="10.782408">
        <ele>324.992632</ele>
        <time>2022-06-02T09:38:33.680Z</time>
      </trkpt>
      <trkpt lat="49.696331" lon="10.782179">
        <ele>324.788314</ele>
        <time>2022-06-02T09:38:34.707Z</time>
      </trkpt>
      <trkpt lat="49.696237" lon="10.781956">
        <ele>324.582935</ele>
        <time>2022-06-02T09:38:35.697Z</time>
      </trkpt>
      <trkpt lat="49.696136" lon="10.781739">
        <ele>324.376656</ele>
        <time>2022-06-02T09:38:36.680Z</time>
      </trkpt>
      <trkpt lat="49.696027" lon="10.781528">
        <ele>324.168299</ele>
        <time>2022-06-02T09:38:37.666Z</time>
      </trkpt>
      <trkpt lat="49.695908" lon="10.781327">
        <ele>323.958050</ele>
        <time>2022-06-02T09:38:38.698Z</time>
      </trkpt>
      <trkpt lat="49.695778" lon="10.781139">
        <ele>323.745704</ele>
        <time>2022-06-02T09:38:39.689Z</time>
      </trkpt>
      <trkpt lat="49.695644" lon="10.780956">
        <ele>323.594100</ele>
        <time>2022-06-02T09:38:40.694Z</time>
      </trkpt>
      <trkpt lat="49.695507" lon="10.780776">
        <ele>323.485211</ele>
        <time>2022-06-02T09:38:41.682Z</time>
      </trkpt>
      <trkpt lat="49.695371" lon="10.780599">
        <ele>323.377542</ele>
        <time>2022-06-02T09:38:42.693Z</time>
      </trkpt>
      <trkpt lat="49.695236" lon="10.780426">
        <ele>323.271343</ele>
        <time>2022-06-02T09:38:43.683Z</time>
      </trkpt>
      <trkpt lat="49.695105" lon="10.780258">
        <ele>323.168259</ele>
        <time>2022-06-02T09:38:44.685Z</time>
      </trkpt>
      <trkpt lat="49.694979" lon="10.780093">
        <ele>323.068251</ele>
        <time>2022-06-02T09:38:45.683Z</time>
      </trkpt>
      <trkpt lat="49.694856" lon="10.779930">
        <ele>322.970133</ele>
        <time>2022-06-02T09:38:46.678Z</time>
      </trkpt>
      <trkpt lat="49.694737" lon="10.779770">
        <ele>322.874617</ele>
        <time>2022-06-02T09:38:47.686Z</time>
      </trkpt>
      <trkpt lat="49.694622" lon="10.779613">
        <ele>322.781698</ele>
        <time>2022-06-02T09:38:48.689Z</time>
      </trkpt>
      <trkpt lat="49.694516" lon="10.779465">
        <ele>322.695192</ele>
        <time>2022-06-02T09:38:49.673Z</time>
      </trkpt>
      <trkpt lat="49.694422" lon="10.779328">
        <ele>322.616951</ele>
        <time>2022-06-02T09:38:50.687Z</time>
      </trkpt>
      <trkpt lat="49.694338" lon="10.779201">
        <ele>322.559124</ele>
        <time>2022-06-02T09:38:51.687Z</time>
      </trkpt>
      <trkpt lat="49.694264" lon="10.779087">
        <ele>322.533191</ele>
        <time>2022-06-02T09:38:52.693Z</time>
      </trkpt>
      <trkpt lat="49.694189" lon="10.778983">
        <ele>322.508181</ele>
        <time>2022-06-02T09:38:53.679Z</time>
      </trkpt>
      <trkpt lat="49.694111" lon="10.778890">
        <ele>322.483729</ele>
        <time>2022-06-02T09:38:54.692Z</time>
      </trkpt>
      <trkpt lat="49.694032" lon="10.778805">
        <ele>322.459836</ele>
        <time>2022-06-02T09:38:55.678Z</time>
      </trkpt>
      <trkpt lat="49.693954" lon="10.778720">
        <ele>322.436146</ele>
        <time>2022-06-02T09:38:56.691Z</time>
      </trkpt>
      <trkpt lat="49.693878" lon="10.778634">
        <ele>322.412766</ele>
        <time>2022-06-02T09:38:57.693Z</time>
      </trkpt>
      <trkpt lat="49.693799" lon="10.778556">
        <ele>322.389497</ele>
        <time>2022-06-02T09:38:58.685Z</time>
      </trkpt>
      <trkpt lat="49.693657" lon="10.778398">
        <ele>322.346067</ele>
        <time>2022-06-02T09:39:00.700Z</time>
      </trkpt>
      <trkpt lat="49.693535" lon="10.778249">
        <ele>322.307471</ele>
        <time>2022-06-02T09:39:02.693Z</time>
      </trkpt>
      <trkpt lat="49.693416" lon="10.778108">
        <ele>322.270253</ele>
        <time>2022-06-02T09:39:04.696Z</time>
      </trkpt>
      <trkpt lat="49.693301" lon="10.777965">
        <ele>322.233616</ele>
        <time>2022-06-02T09:39:06.693Z</time>
      </trkpt>
      <trkpt lat="49.693189" lon="10.777822">
        <ele>322.197557</ele>
        <time>2022-06-02T09:39:08.680Z</time>
      </trkpt>
      <trkpt lat="49.693079" lon="10.777677">
        <ele>322.161672</ele>
        <time>2022-06-02T09:39:10.684Z</time>
      </trkpt>
      <trkpt lat="49.692968" lon="10.777523">
        <ele>322.124648</ele>
        <time>2022-06-02T09:39:12.686Z</time>
      </trkpt>
      <trkpt lat="49.692855" lon="10.777366">
        <ele>322.079749</ele>
        <time>2022-06-02T09:39:14.690Z</time>
      </trkpt>
      <trkpt lat="49.692752" lon="10.777199">
        <ele>322.035083</ele>
        <time>2022-06-02T09:39:16.703Z</time>
      </trkpt>
      <trkpt lat="49.692655" lon="10.777015">
        <ele>321.989136</ele>
        <time>2022-06-02T09:39:18.683Z</time>
      </trkpt>
      <trkpt lat="49.692564" lon="10.776824">
        <ele>321.943217</ele>
        <time>2022-06-02T09:39:20.677Z</time>
      </trkpt>
      <trkpt lat="49.692466" lon="10.776611">
        <ele>321.892620</ele>
        <time>2022-06-02T09:39:22.700Z</time>
      </trkpt>
      <trkpt lat="49.692362" lon="10.776383">
        <ele>321.838616</ele>
        <time>2022-06-02T09:39:24.694Z</time>
      </trkpt>
      <trkpt lat="49.692306" lon="10.776259">
        <ele>321.809342</ele>
        <time>2022-06-02T09:39:25.697Z</time>
      </trkpt>
      <trkpt lat="49.692244" lon="10.776129">
        <ele>321.778077</ele>
        <time>2022-06-02T09:39:26.683Z</time>
      </trkpt>
      <trkpt lat="49.692176" lon="10.775995">
        <ele>321.745109</ele>
        <time>2022-06-02T09:39:27.692Z</time>
      </trkpt>
      <trkpt lat="49.692106" lon="10.775861">
        <ele>321.711767</ele>
        <time>2022-06-02T09:39:28.695Z</time>
      </trkpt>
      <trkpt lat="49.692031" lon="10.775717">
        <ele>321.675980</ele>
        <time>2022-06-02T09:39:29.688Z</time>
      </trkpt>
      <trkpt lat="49.691952" lon="10.775563">
        <ele>321.637934</ele>
        <time>2022-06-02T09:39:30.687Z</time>
      </trkpt>
      <trkpt lat="49.691868" lon="10.775404">
        <ele>321.598195</ele>
        <time>2022-06-02T09:39:31.701Z</time>
      </trkpt>
      <trkpt lat="49.691777" lon="10.775239">
        <ele>321.554770</ele>
        <time>2022-06-02T09:39:32.692Z</time>
      </trkpt>
      <trkpt lat="49.691684" lon="10.775068">
        <ele>321.509237</ele>
        <time>2022-06-02T09:39:33.692Z</time>
      </trkpt>
      <trkpt lat="49.691586" lon="10.774889">
        <ele>321.461442</ele>
        <time>2022-06-02T09:39:34.689Z</time>
      </trkpt>
      <trkpt lat="49.691484" lon="10.774706">
        <ele>321.412209</ele>
        <time>2022-06-02T09:39:35.683Z</time>
      </trkpt>
      <trkpt lat="49.691379" lon="10.774519">
        <ele>321.361740</ele>
        <time>2022-06-02T09:39:36.674Z</time>
      </trkpt>
      <trkpt lat="49.691269" lon="10.774325">
        <ele>321.309161</ele>
        <time>2022-06-02T09:39:37.692Z</time>
      </trkpt>
      <trkpt lat="49.691152" lon="10.774128">
        <ele>321.254653</ele>
        <time>2022-06-02T09:39:38.684Z</time>
      </trkpt>
      <trkpt lat="49.691033" lon="10.773932">
        <ele>321.199867</ele>
        <time>2022-06-02T09:39:39.701Z</time>
      </trkpt>
      <trkpt lat="49.690912" lon="10.773736">
        <ele>321.144647</ele>
        <time>2022-06-02T09:39:40.678Z</time>
      </trkpt>
      <trkpt lat="49.690791" lon="10.773540">
        <ele>321.089427</ele>
        <time>2022-06-02T09:39:41.687Z</time>
      </trkpt>
      <trkpt lat="49.690671" lon="10.773346">
        <ele>321.034719</ele>
        <time>2022-06-02T09:39:42.691Z</time>
      </trkpt>
      <trkpt lat="49.690550" lon="10.773155">
        <ele>320.943566</ele>
        <time>2022-06-02T09:39:43.680Z</time>
      </trkpt>
      <trkpt lat="49.690433" lon="10.772968">
        <ele>320.837636</ele>
        <time>2022-06-02T09:39:44.680Z</time>
      </trkpt>
      <trkpt lat="49.690317" lon="10.772780">
        <ele>320.731847</ele>
        <time>2022-06-02T09:39:45.699Z</time>
      </trkpt>
      <trkpt lat="49.690204" lon="10.772598">
        <ele>320.629130</ele>
        <time>2022-06-02T09:39:46.689Z</time>
      </trkpt>
      <trkpt lat="49.690095" lon="10.772417">
        <ele>320.528437</ele>
        <time>2022-06-02T09:39:47.686Z</time>
      </trkpt>
      <trkpt lat="49.689989" lon="10.772237">
        <ele>320.429323</ele>
        <time>2022-06-02T09:39:48.687Z</time>
      </trkpt>
      <trkpt lat="49.689890" lon="10.772063">
        <ele>320.334968</ele>
        <time>2022-06-02T09:39:49.671Z</time>
      </trkpt>
      <trkpt lat="49.689798" lon="10.771902">
        <ele>320.247497</ele>
        <time>2022-06-02T09:39:50.692Z</time>
      </trkpt>
      <trkpt lat="49.689718" lon="10.771758">
        <ele>320.170207</ele>
        <time>2022-06-02T09:39:51.681Z</time>
      </trkpt>
      <trkpt lat="49.689650" lon="10.771630">
        <ele>320.102764</ele>
        <time>2022-06-02T09:39:52.692Z</time>
      </trkpt>
      <trkpt lat="49.689589" lon="10.771516">
        <ele>320.042522</ele>
        <time>2022-06-02T09:39:53.671Z</time>
      </trkpt>
      <trkpt lat="49.689499" lon="10.771328">
        <ele>319.947289</ele>
        <time>2022-06-02T09:39:55.693Z</time>
      </trkpt>
      <trkpt lat="49.689421" lon="10.771168">
        <ele>319.875465</ele>
        <time>2022-06-02T09:39:57.691Z</time>
      </trkpt>
      <trkpt lat="49.689290" lon="10.771002">
        <ele>319.823164</ele>
        <time>2022-06-02T09:39:59.683Z</time>
      </trkpt>
      <trkpt lat="49.689214" lon="10.770918">
        <ele>319.794317</ele>
        <time>2022-06-02T09:40:00.698Z</time>
      </trkpt>
      <trkpt lat="49.689139" lon="10.770841">
        <ele>319.766518</ele>
        <time>2022-06-02T09:40:01.684Z</time>
      </trkpt>
      <trkpt lat="49.689060" lon="10.770774">
        <ele>319.738695</ele>
        <time>2022-06-02T09:40:02.696Z</time>
      </trkpt>
      <trkpt lat="49.688920" lon="10.770683">
        <ele>319.691803</ele>
        <time>2022-06-02T09:40:04.693Z</time>
      </trkpt>
      <trkpt lat="49.688826" lon="10.770613">
        <ele>319.659587</ele>
        <time>2022-06-02T09:40:06.699Z</time>
      </trkpt>
      <trkpt lat="49.688751" lon="10.770434">
        <ele>319.616988</ele>
        <time>2022-06-02T09:40:08.681Z</time>
      </trkpt>
      <trkpt lat="49.688644" lon="10.770255">
        <ele>319.568307</ele>
        <time>2022-06-02T09:40:10.683Z</time>
      </trkpt>
      <trkpt lat="49.688518" lon="10.770100">
        <ele>319.518587</ele>
        <time>2022-06-02T09:40:12.687Z</time>
      </trkpt>
      <trkpt lat="49.688383" lon="10.769965">
        <ele>319.468942</ele>
        <time>2022-06-02T09:40:14.671Z</time>
      </trkpt>
      <trkpt lat="49.688244" lon="10.769855">
        <ele>319.420727</ele>
        <time>2022-06-02T09:40:16.694Z</time>
      </trkpt>
      <trkpt lat="49.688101" lon="10.769763">
        <ele>319.372903</ele>
        <time>2022-06-02T09:40:18.689Z</time>
      </trkpt>
      <trkpt lat="49.687957" lon="10.769704">
        <ele>319.324713</ele>
        <time>2022-06-02T09:40:20.685Z</time>
      </trkpt>
      <trkpt lat="49.687820" lon="10.769665">
        <ele>319.245497</ele>
        <time>2022-06-02T09:40:22.687Z</time>
      </trkpt>
      <trkpt lat="49.687685" lon="10.769637">
        <ele>319.168040</ele>
        <time>2022-06-02T09:40:24.686Z</time>
      </trkpt>
      <trkpt lat="49.687553" lon="10.769606">
        <ele>319.092116</ele>
        <time>2022-06-02T09:40:26.675Z</time>
      </trkpt>
      <trkpt lat="49.687420" lon="10.769560">
        <ele>319.014614</ele>
        <time>2022-06-02T09:40:28.694Z</time>
      </trkpt>
      <trkpt lat="49.687290" lon="10.769482">
        <ele>318.935314</ele>
        <time>2022-06-02T09:40:30.690Z</time>
      </trkpt>
      <trkpt lat="49.687164" lon="10.769380">
        <ele>318.854431</ele>
        <time>2022-06-02T09:40:32.689Z</time>
      </trkpt>
      <trkpt lat="49.687030" lon="10.769250">
        <ele>318.764465</ele>
        <time>2022-06-02T09:40:34.694Z</time>
      </trkpt>
      <trkpt lat="49.686894" lon="10.769126">
        <ele>318.674675</ele>
        <time>2022-06-02T09:40:36.697Z</time>
      </trkpt>
      <trkpt lat="49.686763" lon="10.769016">
        <ele>318.589898</ele>
        <time>2022-06-02T09:40:38.667Z</time>
      </trkpt>
      <trkpt lat="49.686647" lon="10.768912">
        <ele>318.513640</ele>
        <time>2022-06-02T09:40:40.679Z</time>
      </trkpt>
      <trkpt lat="49.686535" lon="10.768817">
        <ele>318.440991</ele>
        <time>2022-06-02T09:40:42.695Z</time>
      </trkpt>
      <trkpt lat="49.686433" lon="10.768726">
        <ele>318.374019</ele>
        <time>2022-06-02T09:40:44.700Z</time>
      </trkpt>
      <trkpt lat="49.686338" lon="10.768650">
        <ele>318.313189</ele>
        <time>2022-06-02T09:40:46.684Z</time>
      </trkpt>
      <trkpt lat="49.686246" lon="10.768587">
        <ele>318.632573</ele>
        <time>2022-06-02T09:40:48.694Z</time>
      </trkpt>
      <trkpt lat="49.686148" lon="10.768518">
        <ele>319.025943</ele>
        <time>2022-06-02T09:40:50.684Z</time>
      </trkpt>
      <trkpt lat="49.686062" lon="10.768453">
        <ele>319.375636</ele>
        <time>2022-06-02T09:40:52.691Z</time>
      </trkpt>
      <trkpt lat="49.685945" lon="10.768492">
        <ele>319.812845</ele>
        <time>2022-06-02T09:40:55.692Z</time>
      </trkpt>
      <trkpt lat="49.685913" lon="10.768640">
        <ele>320.181631</ele>
        <time>2022-06-02T09:40:57.686Z</time>
      </trkpt>
      <trkpt lat="49.685900" lon="10.768840">
        <ele>320.656673</ele>
        <time>2022-06-02T09:40:59.690Z</time>
      </trkpt>
      <trkpt lat="49.685903" lon="10.769037">
        <ele>321.122375</ele>
        <time>2022-06-02T09:41:01.695Z</time>
      </trkpt>
      <trkpt lat="49.685913" lon="10.769223">
        <ele>321.563466</ele>
        <time>2022-06-02T09:41:03.682Z</time>
      </trkpt>
      <trkpt lat="49.685936" lon="10.769386">
        <ele>321.957742</ele>
        <time>2022-06-02T09:41:05.670Z</time>
      </trkpt>
      <trkpt lat="49.685938" lon="10.769530">
        <ele>322.298137</ele>
        <time>2022-06-02T09:41:10.683Z</time>
      </trkpt>
      <trkpt lat="49.685913" lon="10.769698">
        <ele>322.705541</ele>
        <time>2022-06-02T09:41:13.683Z</time>
      </trkpt>
      <trkpt lat="49.685870" lon="10.769840">
        <ele>323.076071</ele>
        <time>2022-06-02T09:41:15.695Z</time>
      </trkpt>
      <trkpt lat="49.685810" lon="10.769976">
        <ele>323.465097</ele>
        <time>2022-06-02T09:41:17.693Z</time>
      </trkpt>
      <trkpt lat="49.685763" lon="10.770124">
        <ele>323.854732</ele>
        <time>2022-06-02T09:41:19.686Z</time>
      </trkpt>
      <trkpt lat="49.685749" lon="10.770283">
        <ele>324.233964</ele>
        <time>2022-06-02T09:41:21.684Z</time>
      </trkpt>
      <trkpt lat="49.685763" lon="10.770462">
        <ele>324.660079</ele>
        <time>2022-06-02T09:41:23.694Z</time>
      </trkpt>
      <trkpt lat="49.685780" lon="10.770628">
        <ele>324.996459</ele>
        <time>2022-06-02T09:41:25.671Z</time>
      </trkpt>
      <trkpt lat="49.685793" lon="10.770769">
        <ele>325.219579</ele>
        <time>2022-06-02T09:41:27.690Z</time>
      </trkpt>
      <trkpt lat="49.685791" lon="10.770937">
        <ele>325.482810</ele>
        <time>2022-06-02T09:41:32.684Z</time>
      </trkpt>
      <trkpt lat="49.685763" lon="10.771119">
        <ele>325.775879</ele>
        <time>2022-06-02T09:41:35.685Z</time>
      </trkpt>
      <trkpt lat="49.685724" lon="10.771246">
        <ele>325.996109</ele>
        <time>2022-06-02T09:41:37.698Z</time>
      </trkpt>
      <trkpt lat="49.685673" lon="10.771361">
        <ele>326.214528</ele>
        <time>2022-06-02T09:41:39.681Z</time>
      </trkpt>
      <trkpt lat="49.685614" lon="10.771475">
        <ele>326.443230</ele>
        <time>2022-06-02T09:41:41.694Z</time>
      </trkpt>
      <trkpt lat="49.685550" lon="10.771597">
        <ele>326.689286</ele>
        <time>2022-06-02T09:41:43.695Z</time>
      </trkpt>
      <trkpt lat="49.685482" lon="10.771731">
        <ele>326.956080</ele>
        <time>2022-06-02T09:41:45.698Z</time>
      </trkpt>
      <trkpt lat="49.685418" lon="10.771856">
        <ele>327.205805</ele>
        <time>2022-06-02T09:41:47.681Z</time>
      </trkpt>
      <trkpt lat="49.685349" lon="10.771975">
        <ele>327.456142</ele>
        <time>2022-06-02T09:41:49.690Z</time>
      </trkpt>
      <trkpt lat="49.685285" lon="10.772094">
        <ele>327.698567</ele>
        <time>2022-06-02T09:41:51.675Z</time>
      </trkpt>
      <trkpt lat="49.685219" lon="10.772213">
        <ele>327.944116</ele>
        <time>2022-06-02T09:41:53.682Z</time>
      </trkpt>
      <trkpt lat="49.685152" lon="10.772336">
        <ele>328.196008</ele>
        <time>2022-06-02T09:41:55.677Z</time>
      </trkpt>
      <trkpt lat="49.685088" lon="10.772463">
        <ele>328.448199</ele>
        <time>2022-06-02T09:41:57.674Z</time>
      </trkpt>
      <trkpt lat="49.685052" lon="10.772621">
        <ele>328.710624</ele>
        <time>2022-06-02T09:41:59.691Z</time>
      </trkpt>
      <trkpt lat="49.685045" lon="10.772804">
        <ele>328.997814</ele>
        <time>2022-06-02T09:42:01.682Z</time>
      </trkpt>
      <trkpt lat="49.685018" lon="10.772992">
        <ele>329.233914</ele>
        <time>2022-06-02T09:42:03.692Z</time>
      </trkpt>
      <trkpt lat="49.684989" lon="10.773172">
        <ele>329.241779</ele>
        <time>2022-06-02T09:42:05.681Z</time>
      </trkpt>
      <trkpt lat="49.684962" lon="10.773321">
        <ele>329.248340</ele>
        <time>2022-06-02T09:42:07.689Z</time>
      </trkpt>
      <trkpt lat="49.684926" lon="10.773467">
        <ele>329.254965</ele>
        <time>2022-06-02T09:42:10.682Z</time>
      </trkpt>
      <trkpt lat="49.684906" lon="10.773848">
        <ele>329.271173</ele>
        <time>2022-06-02T09:46:31.702Z</time>
      </trkpt>
      <trkpt lat="49.684849" lon="10.774003">
        <ele>329.278732</ele>
        <time>2022-06-02T09:46:34.693Z</time>
      </trkpt>
      <trkpt lat="49.684788" lon="10.774122">
        <ele>329.285170</ele>
        <time>2022-06-02T09:46:37.697Z</time>
      </trkpt>
      <trkpt lat="49.684702" lon="10.774307">
        <ele>329.294828</ele>
        <time>2022-06-02T09:47:21.679Z</time>
      </trkpt>
      <trkpt lat="49.684752" lon="10.774481">
        <ele>329.302901</ele>
        <time>2022-06-02T09:47:24.695Z</time>
      </trkpt>
      <trkpt lat="49.684811" lon="10.774647">
        <ele>329.310932</ele>
        <time>2022-06-02T09:47:26.681Z</time>
      </trkpt>
      <trkpt lat="49.684879" lon="10.774849">
        <ele>329.320587</ele>
        <time>2022-06-02T09:47:28.687Z</time>
      </trkpt>
      <trkpt lat="49.684954" lon="10.775078">
        <ele>329.331469</ele>
        <time>2022-06-02T09:47:30.679Z</time>
      </trkpt>
      <trkpt lat="49.685036" lon="10.775322">
        <ele>329.343128</ele>
        <time>2022-06-02T09:47:32.683Z</time>
      </trkpt>
      <trkpt lat="49.685117" lon="10.775564">
        <ele>329.206001</ele>
        <time>2022-06-02T09:47:34.682Z</time>
      </trkpt>
      <trkpt lat="49.685198" lon="10.775803">
        <ele>328.856833</ele>
        <time>2022-06-02T09:47:36.683Z</time>
      </trkpt>
      <trkpt lat="49.685279" lon="10.776043">
        <ele>328.506518</ele>
        <time>2022-06-02T09:47:38.675Z</time>
      </trkpt>
      <trkpt lat="49.685361" lon="10.776285">
        <ele>328.152984</ele>
        <time>2022-06-02T09:47:40.698Z</time>
      </trkpt>
      <trkpt lat="49.685444" lon="10.776531">
        <ele>327.793936</ele>
        <time>2022-06-02T09:47:42.696Z</time>
      </trkpt>
      <trkpt lat="49.685486" lon="10.776655">
        <ele>327.612801</ele>
        <time>2022-06-02T09:47:43.701Z</time>
      </trkpt>
      <trkpt lat="49.685529" lon="10.776782">
        <ele>327.427300</ele>
        <time>2022-06-02T09:47:44.703Z</time>
      </trkpt>
      <trkpt lat="49.685571" lon="10.776913">
        <ele>327.238094</ele>
        <time>2022-06-02T09:47:45.684Z</time>
      </trkpt>
      <trkpt lat="49.685617" lon="10.777046">
        <ele>327.042923</ele>
        <time>2022-06-02T09:47:46.698Z</time>
      </trkpt>
      <trkpt lat="49.685662" lon="10.777179">
        <ele>326.848688</ele>
        <time>2022-06-02T09:47:47.690Z</time>
      </trkpt>
      <trkpt lat="49.685708" lon="10.777314">
        <ele>326.651231</ele>
        <time>2022-06-02T09:47:48.678Z</time>
      </trkpt>
      <trkpt lat="49.685755" lon="10.777452">
        <ele>326.449407</ele>
        <time>2022-06-02T09:47:49.686Z</time>
      </trkpt>
      <trkpt lat="49.685801" lon="10.777592">
        <ele>326.246203</ele>
        <time>2022-06-02T09:47:50.681Z</time>
      </trkpt>
      <trkpt lat="49.685849" lon="10.777733">
        <ele>326.040013</ele>
        <time>2022-06-02T09:47:51.690Z</time>
      </trkpt>
      <trkpt lat="49.685897" lon="10.777875">
        <ele>325.832676</ele>
        <time>2022-06-02T09:47:52.694Z</time>
      </trkpt>
      <trkpt lat="49.685945" lon="10.778017">
        <ele>325.621123</ele>
        <time>2022-06-02T09:47:53.707Z</time>
      </trkpt>
      <trkpt lat="49.685992" lon="10.778157">
        <ele>325.410222</ele>
        <time>2022-06-02T09:47:54.676Z</time>
      </trkpt>
      <trkpt lat="49.686040" lon="10.778297">
        <ele>325.198362</ele>
        <time>2022-06-02T09:47:55.687Z</time>
      </trkpt>
      <trkpt lat="49.686086" lon="10.778438">
        <ele>324.987212</ele>
        <time>2022-06-02T09:47:56.686Z</time>
      </trkpt>
      <trkpt lat="49.686133" lon="10.778577">
        <ele>324.777498</ele>
        <time>2022-06-02T09:47:57.688Z</time>
      </trkpt>
      <trkpt lat="49.686178" lon="10.778715">
        <ele>324.570861</ele>
        <time>2022-06-02T09:47:58.699Z</time>
      </trkpt>
      <trkpt lat="49.686223" lon="10.778848">
        <ele>324.370172</ele>
        <time>2022-06-02T09:47:59.679Z</time>
      </trkpt>
      <trkpt lat="49.686296" lon="10.779062">
        <ele>324.046688</ele>
        <time>2022-06-02T09:48:01.691Z</time>
      </trkpt>
      <trkpt lat="49.686348" lon="10.779220">
        <ele>323.809657</ele>
        <time>2022-06-02T09:48:03.703Z</time>
      </trkpt>
      <trkpt lat="49.686396" lon="10.779367">
        <ele>323.589484</ele>
        <time>2022-06-02T09:48:05.696Z</time>
      </trkpt>
      <trkpt lat="49.686431" lon="10.779529">
        <ele>323.361111</ele>
        <time>2022-06-02T09:48:07.683Z</time>
      </trkpt>
      <trkpt lat="49.686453" lon="10.779693">
        <ele>323.137158</ele>
        <time>2022-06-02T09:48:09.695Z</time>
      </trkpt>
      <trkpt lat="49.686455" lon="10.779854">
        <ele>322.921842</ele>
        <time>2022-06-02T09:48:11.683Z</time>
      </trkpt>
      <trkpt lat="49.686446" lon="10.780015">
        <ele>322.705763</ele>
        <time>2022-06-02T09:48:13.688Z</time>
      </trkpt>
      <trkpt lat="49.686421" lon="10.780168">
        <ele>322.494759</ele>
        <time>2022-06-02T09:48:15.699Z</time>
      </trkpt>
      <trkpt lat="49.686382" lon="10.780316">
        <ele>322.281079</ele>
        <time>2022-06-02T09:48:17.687Z</time>
      </trkpt>
      <trkpt lat="49.686331" lon="10.780460">
        <ele>322.061570</ele>
        <time>2022-06-02T09:48:19.676Z</time>
      </trkpt>
      <trkpt lat="49.686277" lon="10.780601">
        <ele>321.924174</ele>
        <time>2022-06-02T09:48:21.688Z</time>
      </trkpt>
      <trkpt lat="49.686223" lon="10.780750">
        <ele>321.792789</ele>
        <time>2022-06-02T09:48:23.694Z</time>
      </trkpt>
      <trkpt lat="49.686171" lon="10.780893">
        <ele>321.666594</ele>
        <time>2022-06-02T09:48:25.693Z</time>
      </trkpt>
      <trkpt lat="49.686117" lon="10.781033">
        <ele>321.541203</ele>
        <time>2022-06-02T09:48:27.688Z</time>
      </trkpt>
      <trkpt lat="49.686064" lon="10.781174">
        <ele>321.415753</ele>
        <time>2022-06-02T09:48:29.692Z</time>
      </trkpt>
      <trkpt lat="49.686012" lon="10.781316">
        <ele>321.290227</ele>
        <time>2022-06-02T09:48:31.686Z</time>
      </trkpt>
      <trkpt lat="49.685963" lon="10.781462">
        <ele>321.163696</ele>
        <time>2022-06-02T09:48:33.698Z</time>
      </trkpt>
      <trkpt lat="49.685924" lon="10.781617">
        <ele>321.035754</ele>
        <time>2022-06-02T09:48:35.679Z</time>
      </trkpt>
      <trkpt lat="49.685902" lon="10.781778">
        <ele>320.909163</ele>
        <time>2022-06-02T09:48:37.702Z</time>
      </trkpt>
      <trkpt lat="49.685898" lon="10.781941">
        <ele>320.783676</ele>
        <time>2022-06-02T09:48:39.686Z</time>
      </trkpt>
      <trkpt lat="49.685906" lon="10.782102">
        <ele>320.659454</ele>
        <time>2022-06-02T09:48:41.689Z</time>
      </trkpt>
      <trkpt lat="49.685920" lon="10.782259">
        <ele>320.537531</ele>
        <time>2022-06-02T09:48:43.704Z</time>
      </trkpt>
      <trkpt lat="49.685945" lon="10.782418">
        <ele>320.411651</ele>
        <time>2022-06-02T09:48:45.680Z</time>
      </trkpt>
      <trkpt lat="49.685972" lon="10.782576">
        <ele>320.285933</ele>
        <time>2022-06-02T09:48:47.680Z</time>
      </trkpt>
      <trkpt lat="49.686004" lon="10.782731">
        <ele>320.160767</ele>
        <time>2022-06-02T09:48:49.684Z</time>
      </trkpt>
      <trkpt lat="49.686032" lon="10.782887">
        <ele>320.036223</ele>
        <time>2022-06-02T09:48:51.678Z</time>
      </trkpt>
      <trkpt lat="49.686061" lon="10.783035">
        <ele>319.917259</ele>
        <time>2022-06-02T09:48:53.692Z</time>
      </trkpt>
      <trkpt lat="49.686093" lon="10.783178">
        <ele>319.863571</ele>
        <time>2022-06-02T09:48:55.694Z</time>
      </trkpt>
      <trkpt lat="49.686129" lon="10.783323">
        <ele>319.822738</ele>
        <time>2022-06-02T09:48:57.680Z</time>
      </trkpt>
      <trkpt lat="49.686170" lon="10.783469">
        <ele>319.780893</ele>
        <time>2022-06-02T09:48:59.677Z</time>
      </trkpt>
      <trkpt lat="49.686220" lon="10.783613">
        <ele>319.737926</ele>
        <time>2022-06-02T09:49:01.686Z</time>
      </trkpt>
      <trkpt lat="49.686280" lon="10.783746">
        <ele>319.695298</ele>
        <time>2022-06-02T09:49:03.691Z</time>
      </trkpt>
      <trkpt lat="49.686348" lon="10.783868">
        <ele>319.652961</ele>
        <time>2022-06-02T09:49:05.682Z</time>
      </trkpt>
      <trkpt lat="49.686421" lon="10.783986">
        <ele>319.610037</ele>
        <time>2022-06-02T09:49:07.681Z</time>
      </trkpt>
      <trkpt lat="49.686496" lon="10.784102">
        <ele>319.566921</ele>
        <time>2022-06-02T09:49:09.693Z</time>
      </trkpt>
      <trkpt lat="49.686572" lon="10.784218">
        <ele>319.523517</ele>
        <time>2022-06-02T09:49:11.682Z</time>
      </trkpt>
      <trkpt lat="49.686647" lon="10.784334">
        <ele>319.480401</ele>
        <time>2022-06-02T09:49:13.690Z</time>
      </trkpt>
      <trkpt lat="49.686721" lon="10.784444">
        <ele>319.438680</ele>
        <time>2022-06-02T09:49:15.683Z</time>
      </trkpt>
      <trkpt lat="49.686791" lon="10.784556">
        <ele>319.397738</ele>
        <time>2022-06-02T09:49:17.702Z</time>
      </trkpt>
      <trkpt lat="49.686861" lon="10.784665">
        <ele>319.357360</ele>
        <time>2022-06-02T09:49:19.681Z</time>
      </trkpt>
      <trkpt lat="49.686930" lon="10.784774">
        <ele>319.317268</ele>
        <time>2022-06-02T09:49:21.703Z</time>
      </trkpt>
      <trkpt lat="49.687001" lon="10.784885">
        <ele>319.276230</ele>
        <time>2022-06-02T09:49:23.685Z</time>
      </trkpt>
      <trkpt lat="49.687072" lon="10.784997">
        <ele>319.235005</ele>
        <time>2022-06-02T09:49:25.706Z</time>
      </trkpt>
      <trkpt lat="49.687144" lon="10.785109">
        <ele>319.193495</ele>
        <time>2022-06-02T09:49:27.681Z</time>
      </trkpt>
      <trkpt lat="49.687216" lon="10.785222">
        <ele>319.151642</ele>
        <time>2022-06-02T09:49:29.683Z</time>
      </trkpt>
      <trkpt lat="49.687291" lon="10.785337">
        <ele>319.108212</ele>
        <time>2022-06-02T09:49:31.678Z</time>
      </trkpt>
      <trkpt lat="49.687368" lon="10.785456">
        <ele>319.063450</ele>
        <time>2022-06-02T09:49:33.686Z</time>
      </trkpt>
      <trkpt lat="49.687446" lon="10.785580">
        <ele>319.017452</ele>
        <time>2022-06-02T09:49:35.692Z</time>
      </trkpt>
      <trkpt lat="49.687525" lon="10.785706">
        <ele>318.970785</ele>
        <time>2022-06-02T09:49:37.677Z</time>
      </trkpt>
      <trkpt lat="49.687605" lon="10.785832">
        <ele>318.923832</ele>
        <time>2022-06-02T09:49:39.689Z</time>
      </trkpt>
      <trkpt lat="49.687686" lon="10.785959">
        <ele>318.876401</ele>
        <time>2022-06-02T09:49:41.691Z</time>
      </trkpt>
      <trkpt lat="49.687765" lon="10.786085">
        <ele>318.829735</ele>
        <time>2022-06-02T09:49:43.696Z</time>
      </trkpt>
      <trkpt lat="49.687841" lon="10.786210">
        <ele>318.784113</ele>
        <time>2022-06-02T09:49:45.692Z</time>
      </trkpt>
      <trkpt lat="49.687916" lon="10.786329">
        <ele>318.739929</ele>
        <time>2022-06-02T09:49:47.692Z</time>
      </trkpt>
      <trkpt lat="49.687991" lon="10.786448">
        <ele>318.695744</ele>
        <time>2022-06-02T09:49:49.694Z</time>
      </trkpt>
      <trkpt lat="49.688068" lon="10.786569">
        <ele>318.650604</ele>
        <time>2022-06-02T09:49:51.681Z</time>
      </trkpt>
      <trkpt lat="49.688149" lon="10.786688">
        <ele>318.604664</ele>
        <time>2022-06-02T09:49:53.685Z</time>
      </trkpt>
      <trkpt lat="49.688238" lon="10.786797">
        <ele>318.557984</ele>
        <time>2022-06-02T09:49:55.680Z</time>
      </trkpt>
      <trkpt lat="49.688335" lon="10.786891">
        <ele>318.510919</ele>
        <time>2022-06-02T09:49:57.705Z</time>
      </trkpt>
      <trkpt lat="49.688445" lon="10.786964">
        <ele>318.461707</ele>
        <time>2022-06-02T09:49:59.697Z</time>
      </trkpt>
      <trkpt lat="49.688554" lon="10.787027">
        <ele>318.419760</ele>
        <time>2022-06-02T09:50:01.697Z</time>
      </trkpt>
      <trkpt lat="49.688659" lon="10.787085">
        <ele>318.396552</ele>
        <time>2022-06-02T09:50:03.693Z</time>
      </trkpt>
      <trkpt lat="49.688761" lon="10.787140">
        <ele>318.374068</ele>
        <time>2022-06-02T09:50:05.688Z</time>
      </trkpt>
      <trkpt lat="49.688864" lon="10.787197">
        <ele>318.351298</ele>
        <time>2022-06-02T09:50:07.687Z</time>
      </trkpt>
      <trkpt lat="49.688967" lon="10.787254">
        <ele>318.328528</ele>
        <time>2022-06-02T09:50:09.674Z</time>
      </trkpt>
      <trkpt lat="49.689070" lon="10.787313">
        <ele>318.305665</ele>
        <time>2022-06-02T09:50:11.670Z</time>
      </trkpt>
      <trkpt lat="49.689172" lon="10.787371">
        <ele>318.283045</ele>
        <time>2022-06-02T09:50:13.687Z</time>
      </trkpt>
      <trkpt lat="49.689274" lon="10.787429">
        <ele>318.260424</ele>
        <time>2022-06-02T09:50:15.699Z</time>
      </trkpt>
      <trkpt lat="49.689375" lon="10.787486">
        <ele>318.238046</ele>
        <time>2022-06-02T09:50:17.701Z</time>
      </trkpt>
      <trkpt lat="49.689474" lon="10.787545">
        <ele>318.215962</ele>
        <time>2022-06-02T09:50:19.678Z</time>
      </trkpt>
      <trkpt lat="49.689573" lon="10.787605">
        <ele>318.193830</ele>
        <time>2022-06-02T09:50:21.689Z</time>
      </trkpt>
      <trkpt lat="49.689669" lon="10.787668">
        <ele>318.172123</ele>
        <time>2022-06-02T09:50:23.683Z</time>
      </trkpt>
      <trkpt lat="49.689766" lon="10.787736">
        <ele>318.149955</ele>
        <time>2022-06-02T09:50:25.698Z</time>
      </trkpt>
      <trkpt lat="49.689864" lon="10.787808">
        <ele>318.127371</ele>
        <time>2022-06-02T09:50:27.692Z</time>
      </trkpt>
      <trkpt lat="49.689961" lon="10.787879">
        <ele>318.105033</ele>
        <time>2022-06-02T09:50:29.679Z</time>
      </trkpt>
      <trkpt lat="49.690057" lon="10.787950">
        <ele>318.082883</ele>
        <time>2022-06-02T09:50:31.695Z</time>
      </trkpt>
      <trkpt lat="49.690155" lon="10.788023">
        <ele>318.060241</ele>
        <time>2022-06-02T09:50:33.686Z</time>
      </trkpt>
      <trkpt lat="49.690251" lon="10.788097">
        <ele>318.045904</ele>
        <time>2022-06-02T09:50:35.695Z</time>
      </trkpt>
      <trkpt lat="49.690349" lon="10.788172">
        <ele>318.036585</ele>
        <time>2022-06-02T09:50:37.674Z</time>
      </trkpt>
      <trkpt lat="49.690446" lon="10.788247">
        <ele>318.027342</ele>
        <time>2022-06-02T09:50:39.681Z</time>
      </trkpt>
      <trkpt lat="49.690544" lon="10.788321">
        <ele>318.018047</ele>
        <time>2022-06-02T09:50:41.687Z</time>
      </trkpt>
      <trkpt lat="49.690644" lon="10.788397">
        <ele>318.008550</ele>
        <time>2022-06-02T09:50:43.701Z</time>
      </trkpt>
      <trkpt lat="49.690743" lon="10.788470">
        <ele>317.999202</ele>
        <time>2022-06-02T09:50:45.688Z</time>
      </trkpt>
      <trkpt lat="49.690841" lon="10.788543">
        <ele>317.989931</ele>
        <time>2022-06-02T09:50:47.687Z</time>
      </trkpt>
      <trkpt lat="49.690940" lon="10.788616">
        <ele>317.980583</ele>
        <time>2022-06-02T09:50:49.685Z</time>
      </trkpt>
      <trkpt lat="49.691036" lon="10.788689">
        <ele>317.971465</ele>
        <time>2022-06-02T09:50:51.698Z</time>
      </trkpt>
      <trkpt lat="49.691132" lon="10.788763">
        <ele>317.962323</ele>
        <time>2022-06-02T09:50:53.673Z</time>
      </trkpt>
      <trkpt lat="49.691230" lon="10.788840">
        <ele>317.952954</ele>
        <time>2022-06-02T09:50:55.702Z</time>
      </trkpt>
      <trkpt lat="49.691328" lon="10.788922">
        <ele>317.943457</ele>
        <time>2022-06-02T09:50:57.700Z</time>
      </trkpt>
      <trkpt lat="49.691426" lon="10.789005">
        <ele>317.933934</ele>
        <time>2022-06-02T09:50:59.681Z</time>
      </trkpt>
      <trkpt lat="49.691525" lon="10.789092">
        <ele>317.924228</ele>
        <time>2022-06-02T09:51:01.694Z</time>
      </trkpt>
      <trkpt lat="49.691624" lon="10.789182">
        <ele>317.914440</ele>
        <time>2022-06-02T09:51:03.693Z</time>
      </trkpt>
      <trkpt lat="49.691721" lon="10.789273">
        <ele>317.904770</ele>
        <time>2022-06-02T09:51:05.704Z</time>
      </trkpt>
      <trkpt lat="49.691818" lon="10.789360">
        <ele>317.878934</ele>
        <time>2022-06-02T09:51:07.683Z</time>
      </trkpt>
      <trkpt lat="49.691914" lon="10.789447">
        <ele>317.817021</ele>
        <time>2022-06-02T09:51:09.699Z</time>
      </trkpt>
      <trkpt lat="49.692010" lon="10.789532">
        <ele>317.755469</ele>
        <time>2022-06-02T09:51:11.689Z</time>
      </trkpt>
      <trkpt lat="49.692106" lon="10.789622">
        <ele>317.693003</ele>
        <time>2022-06-02T09:51:13.681Z</time>
      </trkpt>
      <trkpt lat="49.692203" lon="10.789715">
        <ele>317.629498</ele>
        <time>2022-06-02T09:51:15.679Z</time>
      </trkpt>
      <trkpt lat="49.692302" lon="10.789811">
        <ele>317.564478</ele>
        <time>2022-06-02T09:51:17.699Z</time>
      </trkpt>
      <trkpt lat="49.692398" lon="10.789904">
        <ele>317.501446</ele>
        <time>2022-06-02T09:51:19.683Z</time>
      </trkpt>
      <trkpt lat="49.692492" lon="10.789991">
        <ele>317.440491</ele>
        <time>2022-06-02T09:51:21.700Z</time>
      </trkpt>
      <trkpt lat="49.692588" lon="10.790072">
        <ele>317.379642</ele>
        <time>2022-06-02T09:51:23.700Z</time>
      </trkpt>
      <trkpt lat="49.692686" lon="10.790152">
        <ele>317.317982</ele>
        <time>2022-06-02T09:51:25.694Z</time>
      </trkpt>
      <trkpt lat="49.692787" lon="10.790231">
        <ele>317.255006</ele>
        <time>2022-06-02T09:51:27.700Z</time>
      </trkpt>
      <trkpt lat="49.692889" lon="10.790310">
        <ele>317.191532</ele>
        <time>2022-06-02T09:51:29.684Z</time>
      </trkpt>
      <trkpt lat="49.692992" lon="10.790388">
        <ele>317.127720</ele>
        <time>2022-06-02T09:51:31.690Z</time>
      </trkpt>
      <trkpt lat="49.693094" lon="10.790464">
        <ele>317.064723</ele>
        <time>2022-06-02T09:51:33.680Z</time>
      </trkpt>
      <trkpt lat="49.693194" lon="10.790538">
        <ele>317.003040</ele>
        <time>2022-06-02T09:51:35.685Z</time>
      </trkpt>
      <trkpt lat="49.693293" lon="10.790614">
        <ele>316.941542</ele>
        <time>2022-06-02T09:51:37.696Z</time>
      </trkpt>
      <trkpt lat="49.693391" lon="10.790692">
        <ele>316.882904</ele>
        <time>2022-06-02T09:51:39.692Z</time>
      </trkpt>
      <trkpt lat="49.693488" lon="10.790770">
        <ele>316.831555</ele>
        <time>2022-06-02T09:51:41.693Z</time>
      </trkpt>
      <trkpt lat="49.693585" lon="10.790846">
        <ele>316.780485</ele>
        <time>2022-06-02T09:51:43.679Z</time>
      </trkpt>
      <trkpt lat="49.693681" lon="10.790921">
        <ele>316.729970</ele>
        <time>2022-06-02T09:51:45.676Z</time>
      </trkpt>
      <trkpt lat="49.693777" lon="10.790991">
        <ele>316.680122</ele>
        <time>2022-06-02T09:51:47.684Z</time>
      </trkpt>
      <trkpt lat="49.693877" lon="10.791041">
        <ele>316.630764</ele>
        <time>2022-06-02T09:51:49.688Z</time>
      </trkpt>
      <trkpt lat="49.693977" lon="10.791067">
        <ele>316.583141</ele>
        <time>2022-06-02T09:51:51.685Z</time>
      </trkpt>
      <trkpt lat="49.694077" lon="10.791037">
        <ele>316.535302</ele>
        <time>2022-06-02T09:51:53.697Z</time>
      </trkpt>
      <trkpt lat="49.694177" lon="10.790977">
        <ele>316.484926</ele>
        <time>2022-06-02T09:51:55.680Z</time>
      </trkpt>
      <trkpt lat="49.694276" lon="10.790912">
        <ele>316.434414</ele>
        <time>2022-06-02T09:51:57.670Z</time>
      </trkpt>
      <trkpt lat="49.694373" lon="10.790845">
        <ele>316.384520</ele>
        <time>2022-06-02T09:51:59.689Z</time>
      </trkpt>
      <trkpt lat="49.694470" lon="10.790781">
        <ele>316.334990</ele>
        <time>2022-06-02T09:52:01.696Z</time>
      </trkpt>
      <trkpt lat="49.694568" lon="10.790715">
        <ele>316.284789</ele>
        <time>2022-06-02T09:52:03.690Z</time>
      </trkpt>
      <trkpt lat="49.694670" lon="10.790651">
        <ele>316.233092</ele>
        <time>2022-06-02T09:52:05.685Z</time>
      </trkpt>
      <trkpt lat="49.694771" lon="10.790586">
        <ele>316.181713</ele>
        <time>2022-06-02T09:52:07.674Z</time>
      </trkpt>
      <trkpt lat="49.694871" lon="10.790522">
        <ele>316.130885</ele>
        <time>2022-06-02T09:52:09.687Z</time>
      </trkpt>
      <trkpt lat="49.694970" lon="10.790458">
        <ele>316.080490</ele>
        <time>2022-06-02T09:52:11.686Z</time>
      </trkpt>
      <trkpt lat="49.695072" lon="10.790388">
        <ele>316.044311</ele>
        <time>2022-06-02T09:52:13.679Z</time>
      </trkpt>
      <trkpt lat="49.695171" lon="10.790323">
        <ele>316.027017</ele>
        <time>2022-06-02T09:52:15.684Z</time>
      </trkpt>
      <trkpt lat="49.695271" lon="10.790261">
        <ele>316.009693</ele>
        <time>2022-06-02T09:52:17.695Z</time>
      </trkpt>
      <trkpt lat="49.695369" lon="10.790198">
        <ele>315.992628</ele>
        <time>2022-06-02T09:52:19.685Z</time>
      </trkpt>
      <trkpt lat="49.695466" lon="10.790136">
        <ele>315.975751</ele>
        <time>2022-06-02T09:52:21.685Z</time>
      </trkpt>
      <trkpt lat="49.695560" lon="10.790077">
        <ele>315.959439</ele>
        <time>2022-06-02T09:52:23.685Z</time>
      </trkpt>
      <trkpt lat="49.695653" lon="10.790019">
        <ele>315.943315</ele>
        <time>2022-06-02T09:52:25.695Z</time>
      </trkpt>
      <trkpt lat="49.695748" lon="10.789959">
        <ele>315.926815</ele>
        <time>2022-06-02T09:52:27.685Z</time>
      </trkpt>
      <trkpt lat="49.695852" lon="10.789887">
        <ele>315.908493</ele>
        <time>2022-06-02T09:52:29.708Z</time>
      </trkpt>
      <trkpt lat="49.695962" lon="10.789806">
        <ele>315.888902</ele>
        <time>2022-06-02T09:52:31.691Z</time>
      </trkpt>
      <trkpt lat="49.696080" lon="10.789717">
        <ele>315.867792</ele>
        <time>2022-06-02T09:52:33.675Z</time>
      </trkpt>
      <trkpt lat="49.696199" lon="10.789624">
        <ele>315.846353</ele>
        <time>2022-06-02T09:52:35.704Z</time>
      </trkpt>
      <trkpt lat="49.696319" lon="10.789529">
        <ele>315.824676</ele>
        <time>2022-06-02T09:52:37.688Z</time>
      </trkpt>
      <trkpt lat="49.696437" lon="10.789433">
        <ele>315.803236</ele>
        <time>2022-06-02T09:52:39.687Z</time>
      </trkpt>
      <trkpt lat="49.696553" lon="10.789335">
        <ele>315.781981</ele>
        <time>2022-06-02T09:52:41.675Z</time>
      </trkpt>
      <trkpt lat="49.696661" lon="10.789244">
        <ele>315.770410</ele>
        <time>2022-06-02T09:52:43.681Z</time>
      </trkpt>
      <trkpt lat="49.696762" lon="10.789159">
        <ele>315.863678</ele>
        <time>2022-06-02T09:52:45.684Z</time>
      </trkpt>
      <trkpt lat="49.696861" lon="10.789076">
        <ele>315.955021</ele>
        <time>2022-06-02T09:52:47.687Z</time>
      </trkpt>
      <trkpt lat="49.696959" lon="10.788990">
        <ele>316.046417</ele>
        <time>2022-06-02T09:52:49.678Z</time>
      </trkpt>
      <trkpt lat="49.697051" lon="10.788909">
        <ele>316.132287</ele>
        <time>2022-06-02T09:52:51.677Z</time>
      </trkpt>
      <trkpt lat="49.697137" lon="10.788836">
        <ele>316.211861</ele>
        <time>2022-06-02T09:52:53.686Z</time>
      </trkpt>
      <trkpt lat="49.697221" lon="10.788786">
        <ele>316.284866</ele>
        <time>2022-06-02T09:52:56.674Z</time>
      </trkpt>
      <trkpt lat="49.697297" lon="10.788938">
        <ele>316.385654</ele>
        <time>2022-06-02T09:53:00.659Z</time>
      </trkpt>
      <trkpt lat="49.697314" lon="10.789203">
        <ele>316.525360</ele>
        <time>2022-06-02T09:53:02.686Z</time>
      </trkpt>
      <trkpt lat="49.697326" lon="10.789368">
        <ele>316.612467</ele>
        <time>2022-06-02T09:53:03.671Z</time>
      </trkpt>
      <trkpt lat="49.697343" lon="10.789569">
        <ele>316.718813</ele>
        <time>2022-06-02T09:53:04.681Z</time>
      </trkpt>
      <trkpt lat="49.697363" lon="10.789792">
        <ele>316.836922</ele>
        <time>2022-06-02T09:53:05.687Z</time>
      </trkpt>
      <trkpt lat="49.697387" lon="10.790019">
        <ele>316.957591</ele>
        <time>2022-06-02T09:53:06.671Z</time>
      </trkpt>
      <trkpt lat="49.697410" lon="10.790247">
        <ele>317.078649</ele>
        <time>2022-06-02T09:53:07.695Z</time>
      </trkpt>
      <trkpt lat="49.697435" lon="10.790470">
        <ele>317.197383</ele>
        <time>2022-06-02T09:53:08.663Z</time>
      </trkpt>
      <trkpt lat="49.697466" lon="10.790686">
        <ele>317.225470</ele>
        <time>2022-06-02T09:53:09.694Z</time>
      </trkpt>
      <trkpt lat="49.697504" lon="10.790892">
        <ele>317.229285</ele>
        <time>2022-06-02T09:53:10.678Z</time>
      </trkpt>
      <trkpt lat="49.697549" lon="10.791092">
        <ele>317.233055</ele>
        <time>2022-06-02T09:53:11.687Z</time>
      </trkpt>
      <trkpt lat="49.697603" lon="10.791278">
        <ele>317.236686</ele>
        <time>2022-06-02T09:53:12.669Z</time>
      </trkpt>
      <trkpt lat="49.697666" lon="10.791452">
        <ele>317.240237</ele>
        <time>2022-06-02T09:53:13.679Z</time>
      </trkpt>
      <trkpt lat="49.697738" lon="10.791610">
        <ele>317.243678</ele>
        <time>2022-06-02T09:53:14.680Z</time>
      </trkpt>
      <trkpt lat="49.697817" lon="10.791754">
        <ele>317.247040</ele>
        <time>2022-06-02T09:53:15.704Z</time>
      </trkpt>
      <trkpt lat="49.697901" lon="10.791882">
        <ele>317.250287</ele>
        <time>2022-06-02T09:53:16.686Z</time>
      </trkpt>
      <trkpt lat="49.697988" lon="10.791995">
        <ele>317.253415</ele>
        <time>2022-06-02T09:53:17.684Z</time>
      </trkpt>
      <trkpt lat="49.698079" lon="10.792091">
        <ele>317.256448</ele>
        <time>2022-06-02T09:53:18.676Z</time>
      </trkpt>
      <trkpt lat="49.698174" lon="10.792171">
        <ele>317.259426</ele>
        <time>2022-06-02T09:53:19.705Z</time>
      </trkpt>
      <trkpt lat="49.698268" lon="10.792239">
        <ele>317.262283</ele>
        <time>2022-06-02T09:53:20.695Z</time>
      </trkpt>
      <trkpt lat="49.698360" lon="10.792307">
        <ele>317.265090</ele>
        <time>2022-06-02T09:53:21.678Z</time>
      </trkpt>
      <trkpt lat="49.698489" lon="10.792413">
        <ele>317.269112</ele>
        <time>2022-06-02T09:53:23.678Z</time>
      </trkpt>
      <trkpt lat="49.698566" lon="10.792499">
        <ele>317.271727</ele>
        <time>2022-06-02T09:53:25.702Z</time>
      </trkpt>
      <trkpt lat="49.698598" lon="10.792696">
        <ele>317.237888</ele>
        <time>2022-06-02T09:53:29.694Z</time>
      </trkpt>
      <trkpt lat="49.698559" lon="10.792935">
        <ele>317.194619</ele>
        <time>2022-06-02T09:53:31.693Z</time>
      </trkpt>
      <trkpt lat="49.698537" lon="10.793071">
        <ele>317.170010</ele>
        <time>2022-06-02T09:53:32.686Z</time>
      </trkpt>
      <trkpt lat="49.698512" lon="10.793227">
        <ele>317.141797</ele>
        <time>2022-06-02T09:53:33.674Z</time>
      </trkpt>
      <trkpt lat="49.698485" lon="10.793400">
        <ele>317.110557</ele>
        <time>2022-06-02T09:53:34.693Z</time>
      </trkpt>
      <trkpt lat="49.698461" lon="10.793578">
        <ele>317.078639</ele>
        <time>2022-06-02T09:53:35.690Z</time>
      </trkpt>
      <trkpt lat="49.698440" lon="10.793757">
        <ele>317.046704</ele>
        <time>2022-06-02T09:53:36.696Z</time>
      </trkpt>
      <trkpt lat="49.698419" lon="10.793935">
        <ele>317.014942</ele>
        <time>2022-06-02T09:53:37.674Z</time>
      </trkpt>
      <trkpt lat="49.698399" lon="10.794112">
        <ele>316.983401</ele>
        <time>2022-06-02T09:53:38.680Z</time>
      </trkpt>
      <trkpt lat="49.698382" lon="10.794288">
        <ele>316.952162</ele>
        <time>2022-06-02T09:53:39.692Z</time>
      </trkpt>
      <trkpt lat="49.698365" lon="10.794465">
        <ele>316.920751</ele>
        <time>2022-06-02T09:53:40.674Z</time>
      </trkpt>
      <trkpt lat="49.698350" lon="10.794642">
        <ele>316.889414</ele>
        <time>2022-06-02T09:53:41.684Z</time>
      </trkpt>
      <trkpt lat="49.698335" lon="10.794818">
        <ele>316.858252</ele>
        <time>2022-06-02T09:53:42.690Z</time>
      </trkpt>
      <trkpt lat="49.698320" lon="10.794994">
        <ele>316.827089</ele>
        <time>2022-06-02T09:53:43.679Z</time>
      </trkpt>
      <trkpt lat="49.698310" lon="10.795170">
        <ele>316.796074</ele>
        <time>2022-06-02T09:53:44.678Z</time>
      </trkpt>
      <trkpt lat="49.698299" lon="10.795346">
        <ele>316.780672</ele>
        <time>2022-06-02T09:53:45.694Z</time>
      </trkpt>
      <trkpt lat="49.698289" lon="10.795524">
        <ele>316.775517</ele>
        <time>2022-06-02T09:53:46.690Z</time>
      </trkpt>
      <trkpt lat="49.698280" lon="10.795702">
        <ele>316.770366</ele>
        <time>2022-06-02T09:53:47.684Z</time>
      </trkpt>
      <trkpt lat="49.698273" lon="10.795882">
        <ele>316.765163</ele>
        <time>2022-06-02T09:53:48.692Z</time>
      </trkpt>
      <trkpt lat="49.698268" lon="10.796063">
        <ele>316.759936</ele>
        <time>2022-06-02T09:53:49.713Z</time>
      </trkpt>
      <trkpt lat="49.698263" lon="10.796242">
        <ele>316.754767</ele>
        <time>2022-06-02T09:53:50.678Z</time>
      </trkpt>
      <trkpt lat="49.698259" lon="10.796422">
        <ele>316.749570</ele>
        <time>2022-06-02T09:53:51.686Z</time>
      </trkpt>
      <trkpt lat="49.698257" lon="10.796599">
        <ele>316.744462</ele>
        <time>2022-06-02T09:53:52.697Z</time>
      </trkpt>
      <trkpt lat="49.698255" lon="10.796775">
        <ele>316.739384</ele>
        <time>2022-06-02T09:53:53.698Z</time>
      </trkpt>
      <trkpt lat="49.698254" lon="10.796949">
        <ele>316.734363</ele>
        <time>2022-06-02T09:53:54.685Z</time>
      </trkpt>
      <trkpt lat="49.698252" lon="10.797123">
        <ele>316.729342</ele>
        <time>2022-06-02T09:53:55.668Z</time>
      </trkpt>
      <trkpt lat="49.698250" lon="10.797296">
        <ele>316.724350</ele>
        <time>2022-06-02T09:53:56.692Z</time>
      </trkpt>
      <trkpt lat="49.698248" lon="10.797467">
        <ele>316.719415</ele>
        <time>2022-06-02T09:53:57.660Z</time>
      </trkpt>
      <trkpt lat="49.698245" lon="10.797638">
        <ele>316.714479</ele>
        <time>2022-06-02T09:53:58.681Z</time>
      </trkpt>
      <trkpt lat="49.698241" lon="10.797808">
        <ele>316.709571</ele>
        <time>2022-06-02T09:53:59.670Z</time>
      </trkpt>
      <trkpt lat="49.698237" lon="10.797976">
        <ele>316.704721</ele>
        <time>2022-06-02T09:54:00.683Z</time>
      </trkpt>
      <trkpt lat="49.698232" lon="10.798144">
        <ele>316.693840</ele>
        <time>2022-06-02T09:54:01.672Z</time>
      </trkpt>
      <trkpt lat="49.698227" lon="10.798312">
        <ele>316.680968</ele>
        <time>2022-06-02T09:54:02.676Z</time>
      </trkpt>
      <trkpt lat="49.698221" lon="10.798478">
        <ele>316.668242</ele>
        <time>2022-06-02T09:54:03.691Z</time>
      </trkpt>
      <trkpt lat="49.698215" lon="10.798643">
        <ele>316.655593</ele>
        <time>2022-06-02T09:54:04.694Z</time>
      </trkpt>
      <trkpt lat="49.698206" lon="10.798806">
        <ele>316.643071</ele>
        <time>2022-06-02T09:54:05.686Z</time>
      </trkpt>
      <trkpt lat="49.698195" lon="10.798968">
        <ele>316.630604</ele>
        <time>2022-06-02T09:54:06.688Z</time>
      </trkpt>
      <trkpt lat="49.698183" lon="10.799129">
        <ele>316.618199</ele>
        <time>2022-06-02T09:54:07.689Z</time>
      </trkpt>
      <trkpt lat="49.698171" lon="10.799290">
        <ele>316.605795</ele>
        <time>2022-06-02T09:54:08.661Z</time>
      </trkpt>
      <trkpt lat="49.698158" lon="10.799450">
        <ele>316.593452</ele>
        <time>2022-06-02T09:54:09.687Z</time>
      </trkpt>
      <trkpt lat="49.698145" lon="10.799608">
        <ele>316.581261</ele>
        <time>2022-06-02T09:54:10.684Z</time>
      </trkpt>
      <trkpt lat="49.698132" lon="10.799765">
        <ele>316.569146</ele>
        <time>2022-06-02T09:54:11.677Z</time>
      </trkpt>
      <trkpt lat="49.698119" lon="10.799921">
        <ele>316.557107</ele>
        <time>2022-06-02T09:54:12.684Z</time>
      </trkpt>
      <trkpt lat="49.698105" lon="10.800076">
        <ele>316.545128</ele>
        <time>2022-06-02T09:54:13.682Z</time>
      </trkpt>
      <trkpt lat="49.698092" lon="10.800230">
        <ele>316.533241</ele>
        <time>2022-06-02T09:54:14.680Z</time>
      </trkpt>
      <trkpt lat="49.698081" lon="10.800384">
        <ele>316.521382</ele>
        <time>2022-06-02T09:54:15.675Z</time>
      </trkpt>
      <trkpt lat="49.698072" lon="10.800541">
        <ele>316.509318</ele>
        <time>2022-06-02T09:54:16.695Z</time>
      </trkpt>
      <trkpt lat="49.698068" lon="10.800698">
        <ele>316.497292</ele>
        <time>2022-06-02T09:54:17.692Z</time>
      </trkpt>
      <trkpt lat="49.698071" lon="10.800856">
        <ele>316.460108</ele>
        <time>2022-06-02T09:54:18.680Z</time>
      </trkpt>
      <trkpt lat="49.698083" lon="10.801014">
        <ele>316.392197</ele>
        <time>2022-06-02T09:54:19.700Z</time>
      </trkpt>
      <trkpt lat="49.698102" lon="10.801171">
        <ele>316.324013</ele>
        <time>2022-06-02T09:54:20.676Z</time>
      </trkpt>
      <trkpt lat="49.698128" lon="10.801325">
        <ele>316.256070</ele>
        <time>2022-06-02T09:54:21.687Z</time>
      </trkpt>
      <trkpt lat="49.698162" lon="10.801475">
        <ele>316.188220</ele>
        <time>2022-06-02T09:54:22.678Z</time>
      </trkpt>
      <trkpt lat="49.698201" lon="10.801623">
        <ele>316.119999</ele>
        <time>2022-06-02T09:54:23.689Z</time>
      </trkpt>
      <trkpt lat="49.698241" lon="10.801768">
        <ele>316.052707</ele>
        <time>2022-06-02T09:54:24.690Z</time>
      </trkpt>
      <trkpt lat="49.698279" lon="10.801909">
        <ele>315.987500</ele>
        <time>2022-06-02T09:54:25.674Z</time>
      </trkpt>
      <trkpt lat="49.698316" lon="10.802046">
        <ele>315.924124</ele>
        <time>2022-06-02T09:54:26.689Z</time>
      </trkpt>
      <trkpt lat="49.698351" lon="10.802180">
        <ele>315.862434</ele>
        <time>2022-06-02T09:54:27.691Z</time>
      </trkpt>
      <trkpt lat="49.698385" lon="10.802312">
        <ele>315.801782</ele>
        <time>2022-06-02T09:54:28.683Z</time>
      </trkpt>
      <trkpt lat="49.698416" lon="10.802444">
        <ele>315.741834</ele>
        <time>2022-06-02T09:54:29.690Z</time>
      </trkpt>
      <trkpt lat="49.698459" lon="10.802708">
        <ele>315.625620</ele>
        <time>2022-06-02T09:54:31.689Z</time>
      </trkpt>
      <trkpt lat="49.698484" lon="10.802957">
        <ele>315.518053</ele>
        <time>2022-06-02T09:54:33.688Z</time>
      </trkpt>
      <trkpt lat="49.698490" lon="10.803166">
        <ele>315.428748</ele>
        <time>2022-06-02T09:54:35.696Z</time>
      </trkpt>
      <trkpt lat="49.698483" lon="10.803328">
        <ele>315.359439</ele>
        <time>2022-06-02T09:54:37.685Z</time>
      </trkpt>
      <trkpt lat="49.698450" lon="10.803506">
        <ele>315.322726</ele>
        <time>2022-06-02T09:54:48.670Z</time>
      </trkpt>
      <trkpt lat="49.698382" lon="10.803684">
        <ele>315.395404</ele>
        <time>2022-06-02T09:54:51.686Z</time>
      </trkpt>
      <trkpt lat="49.698403" lon="10.803848">
        <ele>315.454180</ele>
        <time>2022-06-02T09:54:54.692Z</time>
      </trkpt>
      <trkpt lat="49.698514" lon="10.803916">
        <ele>315.519076</ele>
        <time>2022-06-02T09:54:58.684Z</time>
      </trkpt>
      <trkpt lat="49.698647" lon="10.803841">
        <ele>315.596025</ele>
        <time>2022-06-02T09:55:01.678Z</time>
      </trkpt>
      <trkpt lat="49.698786" lon="10.803788">
        <ele>315.673840</ele>
        <time>2022-06-02T09:55:03.689Z</time>
      </trkpt>
      <trkpt lat="49.698970" lon="10.803740">
        <ele>315.775265</ele>
        <time>2022-06-02T09:55:05.665Z</time>
      </trkpt>
      <trkpt lat="49.699066" lon="10.803719">
        <ele>315.827964</ele>
        <time>2022-06-02T09:55:06.690Z</time>
      </trkpt>
      <trkpt lat="49.699165" lon="10.803707">
        <ele>315.881939</ele>
        <time>2022-06-02T09:55:07.691Z</time>
      </trkpt>
      <trkpt lat="49.699268" lon="10.803708">
        <ele>315.937925</ele>
        <time>2022-06-02T09:55:08.674Z</time>
      </trkpt>
      <trkpt lat="49.699375" lon="10.803708">
        <ele>315.996083</ele>
        <time>2022-06-02T09:55:09.689Z</time>
      </trkpt>
      <trkpt lat="49.699485" lon="10.803729">
        <ele>316.056326</ele>
        <time>2022-06-02T09:55:10.702Z</time>
      </trkpt>
      <trkpt lat="49.699592" lon="10.803762">
        <ele>316.115631</ele>
        <time>2022-06-02T09:55:11.680Z</time>
      </trkpt>
      <trkpt lat="49.699702" lon="10.803805">
        <ele>316.177301</ele>
        <time>2022-06-02T09:55:12.707Z</time>
      </trkpt>
      <trkpt lat="49.699812" lon="10.803850">
        <ele>316.239148</ele>
        <time>2022-06-02T09:55:13.693Z</time>
      </trkpt>
      <trkpt lat="49.699907" lon="10.803908">
        <ele>316.281236</ele>
        <time>2022-06-02T09:55:14.679Z</time>
      </trkpt>
      <trkpt lat="49.700001" lon="10.803975">
        <ele>316.281236</ele>
        <time>2022-06-02T09:55:15.680Z</time>
      </trkpt>
      <trkpt lat="49.700092" lon="10.804050">
        <ele>316.281236</ele>
        <time>2022-06-02T09:55:16.684Z</time>
      </trkpt>
      <trkpt lat="49.700179" lon="10.804131">
        <ele>316.281236</ele>
        <time>2022-06-02T09:55:17.692Z</time>
      </trkpt>
      <trkpt lat="49.700260" lon="10.804214">
        <ele>316.281236</ele>
        <time>2022-06-02T09:55:18.698Z</time>
      </trkpt>
      <trkpt lat="49.700338" lon="10.804301">
        <ele>316.281236</ele>
        <time>2022-06-02T09:55:19.683Z</time>
      </trkpt>
      <trkpt lat="49.700414" lon="10.804391">
        <ele>316.281236</ele>
        <time>2022-06-02T09:55:20.691Z</time>
      </trkpt>
      <trkpt lat="49.700490" lon="10.804481">
        <ele>316.281236</ele>
        <time>2022-06-02T09:55:21.683Z</time>
      </trkpt>
      <trkpt lat="49.700566" lon="10.804566">
        <ele>316.281236</ele>
        <time>2022-06-02T09:55:22.686Z</time>
      </trkpt>
      <trkpt lat="49.700647" lon="10.804644">
        <ele>316.281236</ele>
        <time>2022-06-02T09:55:23.692Z</time>
      </trkpt>
      <trkpt lat="49.700733" lon="10.804717">
        <ele>316.281236</ele>
        <time>2022-06-02T09:55:24.690Z</time>
      </trkpt>
      <trkpt lat="49.700821" lon="10.804783">
        <ele>316.281236</ele>
        <time>2022-06-02T09:55:25.686Z</time>
      </trkpt>
      <trkpt lat="49.700912" lon="10.804844">
        <ele>316.281236</ele>
        <time>2022-06-02T09:55:26.690Z</time>
      </trkpt>
      <trkpt lat="49.701008" lon="10.804896">
        <ele>316.281236</ele>
        <time>2022-06-02T09:55:27.686Z</time>
      </trkpt>
      <trkpt lat="49.701104" lon="10.804940">
        <ele>316.281236</ele>
        <time>2022-06-02T09:55:28.700Z</time>
      </trkpt>
      <trkpt lat="49.701201" lon="10.804976">
        <ele>316.281236</ele>
        <time>2022-06-02T09:55:29.688Z</time>
      </trkpt>
      <trkpt lat="49.701297" lon="10.805004">
        <ele>316.281236</ele>
        <time>2022-06-02T09:55:30.690Z</time>
      </trkpt>
      <trkpt lat="49.701297" lon="10.805004">
        <ele>316.281236</ele>
        <time>2022-06-02T09:55:31.417Z</time>
      </trkpt>
    </trkseg>
  </trk>
</gpx>